sensor_id;sensor_type;location;lat;lon;timestamp;pressure;altitude;pressure_sealevel;temperature;humidity
32735;BME280;19112;51.076;3.706;2023-09-19T00:00:46;100838.91;;;17.41;66.32
32735;BME280;19112;51.076;3.706;2023-09-19T00:03:16;100747.53;;;16.87;65.71
32735;BME280;19112;51.076;3.706;2023-09-19T00:05:42;100795.47;;;17.17;66.26
32735;BME280;19112;51.076;3.706;2023-09-19T00:08:12;100742.25;;;16.88;66.23
32735;BME280;19112;51.076;3.706;2023-09-19T00:10:41;100783.94;;;17.11;65.59
32735;BME280;19112;51.076;3.706;2023-09-19T00:13:07;100851.38;;;17.54;64.67
32735;BME280;19112;51.076;3.706;2023-09-19T00:15:44;100865.53;;;17.56;66.03
32735;BME280;19112;51.076;3.706;2023-09-19T00:18:18;100787.47;;;17.14;65.99
32735;BME280;19112;51.076;3.706;2023-09-19T00:20:47;100799.88;;;17.12;64.24
32735;BME280;19112;51.076;3.706;2023-09-19T00:23:15;100797.22;;;17.14;64.71
32735;BME280;19112;51.076;3.706;2023-09-19T00:25:40;100786.59;;;17.14;64.80
32735;BME280;19112;51.076;3.706;2023-09-19T00:28:07;100762.63;;;16.94;64.79
32735;BME280;19112;51.076;3.706;2023-09-19T00:30:34;100803.44;;;17.19;65.25
32735;BME280;19112;51.076;3.706;2023-09-19T00:33:01;100829.19;;;17.40;64.82
32735;BME280;19112;51.076;3.706;2023-09-19T00:35:31;100782.16;;;17.08;65.15
32735;BME280;19112;51.076;3.706;2023-09-19T00:37:57;100868.19;;;17.53;65.42
32735;BME280;19112;51.076;3.706;2023-09-19T00:40:23;100789.19;;;17.03;64.31
32735;BME280;19112;51.076;3.706;2023-09-19T00:42:50;100854.00;;;17.45;64.86
32735;BME280;19112;51.076;3.706;2023-09-19T00:45:17;100761.75;;;16.96;65.48
32735;BME280;19112;51.076;3.706;2023-09-19T00:47:47;100746.63;;;16.79;65.74
32735;BME280;19112;51.076;3.706;2023-09-19T00:50:24;100746.66;;;16.86;65.92
32735;BME280;19112;51.076;3.706;2023-09-19T00:52:54;100822.03;;;17.25;66.32
32735;BME280;19112;51.076;3.706;2023-09-19T00:55:21;100804.28;;;17.13;65.32
32735;BME280;19112;51.076;3.706;2023-09-19T00:57:50;100870.84;;;17.53;65.50
32735;BME280;19112;51.076;3.706;2023-09-19T01:00:17;100793.66;;;17.06;65.97
32735;BME280;19112;51.076;3.706;2023-09-19T01:02:47;100875.28;;;17.55;66.56
32735;BME280;19112;51.076;3.706;2023-09-19T01:05:13;100829.09;;;17.24;66.42
32735;BME280;19112;51.076;3.706;2023-09-19T01:07:40;100798.09;;;17.14;65.66
32735;BME280;19112;51.076;3.706;2023-09-19T01:10:12;100880.63;;;17.60;66.16
32735;BME280;19112;51.076;3.706;2023-09-19T01:24:13;100879.75;;;17.64;67.42
32735;BME280;19112;51.076;3.706;2023-09-19T01:30:12;100847.81;;;17.43;67.59
32735;BME280;19112;51.076;3.706;2023-09-19T01:32:39;100878.75;;;17.47;67.62
32735;BME280;19112;51.076;3.706;2023-09-19T01:35:07;100856.59;;;17.31;67.56
32735;BME280;19112;51.076;3.706;2023-09-19T01:37:38;100844.16;;;17.21;67.86
32735;BME280;19112;51.076;3.706;2023-09-19T01:40:08;100882.31;;;17.52;68.20
32735;BME280;19112;51.076;3.706;2023-09-19T01:43:17;100882.38;;;17.61;68.21
32735;BME280;19112;51.076;3.706;2023-09-19T01:51:42;100813.97;;;17.10;68.51
32735;BME280;19112;51.076;3.706;2023-09-19T01:54:12;100859.25;;;17.33;68.73
32735;BME280;19112;51.076;3.706;2023-09-19T01:57:12;100813.94;;;17.02;68.60
32735;BME280;19112;51.076;3.706;2023-09-19T01:59:54;100846.75;;;17.18;68.63
32735;BME280;19112;51.076;3.706;2023-09-19T02:02:35;100801.56;;;17.01;68.62
32735;BME280;19112;51.076;3.706;2023-09-19T02:05:03;100881.41;;;17.42;68.96
32735;BME280;19112;51.076;3.706;2023-09-19T02:07:30;100810.41;;;17.00;68.75
32735;BME280;19112;51.076;3.706;2023-09-19T02:10:01;100807.72;;;16.98;68.66
32735;BME280;19112;51.076;3.706;2023-09-19T02:12:29;100841.47;;;17.18;68.53
32735;BME280;19112;51.076;3.706;2023-09-19T02:14:56;100786.47;;;16.92;68.42
32735;BME280;19112;51.076;3.706;2023-09-19T02:17:23;100858.31;;;17.27;68.53
32735;BME280;19112;51.076;3.706;2023-09-19T02:19:55;100866.34;;;17.38;68.43
32735;BME280;19112;51.076;3.706;2023-09-19T02:22:22;100806.03;;;17.10;68.62
32735;BME280;19112;51.076;3.706;2023-09-19T02:24:48;100817.56;;;17.13;68.52
32735;BME280;19112;51.076;3.706;2023-09-19T02:27:14;100883.22;;;17.51;67.72
32735;BME280;19112;51.076;3.706;2023-09-19T02:29:42;100827.34;;;17.23;68.16
32735;BME280;19112;51.076;3.706;2023-09-19T02:32:08;100859.28;;;17.40;68.41
32735;BME280;19112;51.076;3.706;2023-09-19T02:34:38;100849.56;;;17.44;68.15
32735;BME280;19112;51.076;3.706;2023-09-19T02:37:07;100819.41;;;17.26;68.22
32735;BME280;19112;51.076;3.706;2023-09-19T02:39:36;100792.78;;;17.14;68.01
32735;BME280;19112;51.076;3.706;2023-09-19T02:42:03;100838.91;;;17.39;67.42
32735;BME280;19112;51.076;3.706;2023-09-19T02:44:30;100879.78;;;17.70;67.49
32735;BME280;19112;51.076;3.706;2023-09-19T02:46:56;100875.34;;;17.69;67.63
32735;BME280;19112;51.076;3.706;2023-09-19T02:49:23;100855.78;;;17.52;67.67
32735;BME280;19112;51.076;3.706;2023-09-19T02:51:49;100840.72;;;17.42;67.91
32735;BME280;19112;51.076;3.706;2023-09-19T02:54:15;100916.22;;;17.93;67.50
32735;BME280;19112;51.076;3.706;2023-09-19T02:56:46;100776.91;;;17.17;67.29
32735;BME280;19112;51.076;3.706;2023-09-19T02:59:14;100848.78;;;17.63;68.21
32735;BME280;19112;51.076;3.706;2023-09-19T03:01:42;100862.13;;;17.77;67.97
32735;BME280;19112;51.076;3.706;2023-09-19T03:04:08;100839.97;;;17.69;68.22
32735;BME280;19112;51.076;3.706;2023-09-19T03:06:37;100896.75;;;18.03;68.61
32735;BME280;19112;51.076;3.706;2023-09-19T03:09:04;100863.91;;;17.83;68.36
32735;BME280;19112;51.076;3.706;2023-09-19T03:11:39;100812.47;;;17.59;68.96
32735;BME280;19112;51.076;3.706;2023-09-19T03:14:06;100894.13;;;18.09;68.86
32735;BME280;19112;51.076;3.706;2023-09-19T03:16:32;100828.41;;;17.68;69.13
32735;BME280;19112;51.076;3.706;2023-09-19T03:18:59;100913.63;;;18.13;69.08
32735;BME280;19112;51.076;3.706;2023-09-19T03:21:25;100893.22;;;18.05;68.86
32735;BME280;19112;51.076;3.706;2023-09-19T03:23:51;100879.00;;;17.93;69.01
32735;BME280;19112;51.076;3.706;2023-09-19T03:26:17;100853.31;;;17.81;69.16
32735;BME280;19112;51.076;3.706;2023-09-19T03:28:43;100911.84;;;18.15;69.18
32735;BME280;19112;51.076;3.706;2023-09-19T03:31:09;100833.81;;;17.74;69.23
32735;BME280;19112;51.076;3.706;2023-09-19T03:33:36;100841.78;;;17.82;69.25
32735;BME280;19112;51.076;3.706;2023-09-19T03:36:03;100865.75;;;17.96;70.01
32735;BME280;19112;51.076;3.706;2023-09-19T03:38:31;100755.72;;;17.28;69.96
32735;BME280;19112;51.076;3.706;2023-09-19T03:40:58;100848.00;;;17.81;70.07
32735;BME280;19112;51.076;3.706;2023-09-19T03:43:24;100876.34;;;17.93;70.04
32735;BME280;19112;51.076;3.706;2023-09-19T03:45:50;100893.22;;;18.05;69.96
32735;BME280;19112;51.076;3.706;2023-09-19T03:48:16;100892.31;;;17.96;69.87
32735;BME280;19112;51.076;3.706;2023-09-19T03:50:43;100911.84;;;18.10;69.68
32735;BME280;19112;51.076;3.706;2023-09-19T03:53:10;100784.94;;;17.34;69.99
32735;BME280;19112;51.076;3.706;2023-09-19T03:55:35;100826.63;;;17.55;69.61
32735;BME280;19112;51.076;3.706;2023-09-19T03:58:02;100902.06;;;17.95;69.76
32735;BME280;19112;51.076;3.706;2023-09-19T04:00:29;100858.50;;;17.63;69.91
32735;BME280;19112;51.076;3.706;2023-09-19T04:02:55;100850.53;;;17.60;69.86
32735;BME280;19112;51.076;3.706;2023-09-19T04:05:23;100849.56;;;17.45;70.24
32735;BME280;19112;51.076;3.706;2023-09-19T04:07:49;100891.25;;;17.66;70.53
32735;BME280;19112;51.076;3.706;2023-09-19T04:10:17;100744.75;;;16.70;70.99
32735;BME280;19112;51.076;3.706;2023-09-19T04:12:56;100841.50;;;17.21;71.41
32735;BME280;19112;51.076;3.706;2023-09-19T04:15:23;100896.50;;;17.48;71.39
32735;BME280;19112;51.076;3.706;2023-09-19T04:17:50;100900.00;;;17.45;71.25
32735;BME280;19112;51.076;3.706;2023-09-19T04:20:20;100849.38;;;17.13;71.43
32735;BME280;19112;51.076;3.706;2023-09-19T04:22:50;100909.72;;;17.42;71.90
32735;BME280;19112;51.076;3.706;2023-09-19T04:25:16;100848.41;;;16.96;72.15
32735;BME280;19112;51.076;3.706;2023-09-19T04:27:41;100848.34;;;16.93;72.06
32735;BME280;19112;51.076;3.706;2023-09-19T04:30:08;100897.13;;;17.15;72.08
32735;BME280;19112;51.076;3.706;2023-09-19T04:32:38;100857.19;;;16.93;72.09
32735;BME280;19112;51.076;3.706;2023-09-19T04:35:09;100835.06;;;16.84;72.32
32735;BME280;19112;51.076;3.706;2023-09-19T04:37:41;100841.25;;;16.84;72.39
32735;BME280;19112;51.076;3.706;2023-09-19T04:40:10;100906.06;;;17.21;72.70
32735;BME280;19112;51.076;3.706;2023-09-19T04:42:42;100876.72;;;17.00;72.81
32735;BME280;19112;51.076;3.706;2023-09-19T04:45:09;100874.84;;;16.87;72.75
32735;BME280;19112;51.076;3.706;2023-09-19T04:47:40;100884.66;;;16.98;72.86
32735;BME280;19112;51.076;3.706;2023-09-19T04:50:09;100895.25;;;16.98;73.10
32735;BME280;19112;51.076;3.706;2023-09-19T04:52:41;100949.38;;;17.22;73.29
32735;BME280;19112;51.076;3.706;2023-09-19T04:55:12;100931.69;;;17.21;73.47
32735;BME280;19112;51.076;3.706;2023-09-19T04:57:51;100854.50;;;16.86;73.33
32735;BME280;19112;51.076;3.706;2023-09-19T05:00:20;100894.47;;;17.15;73.18
32735;BME280;19112;51.076;3.706;2023-09-19T05:02:56;100927.41;;;17.38;73.31
32735;BME280;19112;51.076;3.706;2023-09-19T05:05:23;100904.25;;;17.20;73.38
32735;BME280;19112;51.076;3.706;2023-09-19T05:07:49;100845.66;;;16.87;73.54
32735;BME280;19112;51.076;3.706;2023-09-19T05:10:17;100871.38;;;16.97;73.67
32735;BME280;19112;51.076;3.706;2023-09-19T05:12:45;100852.75;;;16.88;73.84
32735;BME280;19112;51.076;3.706;2023-09-19T05:15:14;100724.94;;;16.19;73.87
32735;BME280;19112;51.076;3.706;2023-09-19T05:17:40;100907.84;;;17.27;73.80
32735;BME280;19112;51.076;3.706;2023-09-19T05:20:07;100757.78;;;16.38;73.50
32735;BME280;19112;51.076;3.706;2023-09-19T05:22:42;100862.56;;;17.04;73.73
32735;BME280;19112;51.076;3.706;2023-09-19T05:25:12;100875.03;;;17.13;73.57
32735;BME280;19112;51.076;3.706;2023-09-19T05:27:43;100937.16;;;17.47;73.30
32735;BME280;19112;51.076;3.706;2023-09-19T05:30:10;100848.41;;;16.97;73.16
32735;BME280;19112;51.076;3.706;2023-09-19T05:32:36;100918.59;;;17.44;73.13
32735;BME280;19112;51.076;3.706;2023-09-19T05:35:02;100844.91;;;17.03;73.12
32735;BME280;19112;51.076;3.706;2023-09-19T05:37:28;100872.34;;;17.08;73.28
32735;BME280;19112;51.076;3.706;2023-09-19T05:39:55;100879.44;;;17.12;73.25
32735;BME280;19112;51.076;3.706;2023-09-19T05:42:21;100804.81;;;16.63;73.39
32735;BME280;19112;51.076;3.706;2023-09-19T05:44:46;100867.91;;;17.06;73.44
32735;BME280;19112;51.076;3.706;2023-09-19T05:47:12;100951.38;;;17.55;73.57
32735;BME280;19112;51.076;3.706;2023-09-19T05:49:39;100861.72;;;17.08;73.42
32735;BME280;19112;51.076;3.706;2023-09-19T05:52:08;100951.41;;;17.63;72.99
32735;BME280;19112;51.076;3.706;2023-09-19T05:54:34;100868.88;;;17.15;73.12
32735;BME280;19112;51.076;3.706;2023-09-19T05:57:03;100922.13;;;17.46;73.25
32735;BME280;19112;51.076;3.706;2023-09-19T05:59:29;100927.53;;;17.58;73.21
32735;BME280;19112;51.076;3.706;2023-09-19T06:01:55;100896.41;;;17.36;73.09
32735;BME280;19112;51.076;3.706;2023-09-19T06:04:21;100926.56;;;17.50;73.04
32735;BME280;19112;51.076;3.706;2023-09-19T06:06:47;100896.41;;;17.36;72.77
32735;BME280;19112;51.076;3.706;2023-09-19T06:09:14;100912.44;;;17.55;72.55
32735;BME280;19112;51.076;3.706;2023-09-19T06:11:42;100906.28;;;17.58;72.45
32735;BME280;19112;51.076;3.706;2023-09-19T06:14:09;100847.66;;;17.20;72.56
32735;BME280;19112;51.076;3.706;2023-09-19T06:16:36;100956.03;;;17.85;72.41
32735;BME280;19112;51.076;3.706;2023-09-19T06:19:04;100931.19;;;17.75;72.31
32735;BME280;19112;51.076;3.706;2023-09-19T06:21:34;100906.34;;;17.70;72.25
32735;BME280;19112;51.076;3.706;2023-09-19T06:24:00;100886.84;;;17.67;71.94
32735;BME280;19112;51.076;3.706;2023-09-19T06:26:26;100843.38;;;17.42;71.81
32735;BME280;19112;51.076;3.706;2023-09-19T06:28:52;100849.59;;;17.51;71.72
32735;BME280;19112;51.076;3.706;2023-09-19T06:31:18;100960.56;;;18.15;71.74
32735;BME280;19112;51.076;3.706;2023-09-19T06:33:44;100954.38;;;18.15;71.47
32735;BME280;19112;51.076;3.706;2023-09-19T06:36:10;100967.72;;;18.28;71.37
32735;BME280;19112;51.076;3.706;2023-09-19T06:38:37;100933.13;;;18.12;71.25
32735;BME280;19112;51.076;3.706;2023-09-19T06:41:04;100932.22;;;18.11;71.14
32735;BME280;19112;51.076;3.706;2023-09-19T06:43:31;100925.09;;;18.05;71.17
32735;BME280;19112;51.076;3.706;2023-09-19T06:45:58;100914.47;;;18.02;71.20
32735;BME280;19112;51.076;3.706;2023-09-19T06:48:25;100811.56;;;17.52;71.12
32735;BME280;19112;51.076;3.706;2023-09-19T06:50:53;100872.81;;;17.94;70.76
32735;BME280;19112;51.076;3.706;2023-09-19T06:53:22;100958.00;;;18.43;70.64
32735;BME280;19112;51.076;3.706;2023-09-19T06:55:51;100957.16;;;18.54;70.47
32735;BME280;19112;51.076;3.706;2023-09-19T06:58:18;100933.19;;;18.47;70.56
32735;BME280;19112;51.076;3.706;2023-09-19T07:00:46;100901.28;;;18.27;70.56
32735;BME280;19112;51.076;3.706;2023-09-19T07:03:14;100914.56;;;18.35;70.33
32735;BME280;19112;51.076;3.706;2023-09-19T07:05:42;100897.75;;;18.32;70.12
32735;BME280;19112;51.076;3.706;2023-09-19T07:08:10;100930.56;;;18.51;69.91
32735;BME280;19112;51.076;3.706;2023-09-19T07:10:40;100872.06;;;18.38;69.19
32735;BME280;19112;51.076;3.706;2023-09-19T07:13:07;100888.88;;;18.43;69.05
32735;BME280;19112;51.076;3.706;2023-09-19T07:15:38;100829.50;;;18.28;68.98
32735;BME280;19112;51.076;3.706;2023-09-19T07:18:08;100966.13;;;19.10;68.56
32735;BME280;19112;51.076;3.706;2023-09-19T07:20:38;100904.03;;;18.90;68.22
32735;BME280;19112;51.076;3.706;2023-09-19T07:23:04;100896.94;;;18.78;68.01
32735;BME280;19112;51.076;3.706;2023-09-19T07:25:33;100942.16;;;19.22;67.74
32735;BME280;19112;51.076;3.706;2023-09-19T07:28:01;100924.41;;;19.21;67.31
32735;BME280;19112;51.076;3.706;2023-09-19T07:30:36;100894.25;;;19.16;67.02
32735;BME280;19112;51.076;3.706;2023-09-19T07:33:03;100919.97;;;19.32;66.84
32735;BME280;19112;51.076;3.706;2023-09-19T07:35:31;100936.81;;;19.51;66.82
32735;BME280;19112;51.076;3.706;2023-09-19T07:37:57;100964.31;;;19.70;66.39
32735;BME280;19112;51.076;3.706;2023-09-19T07:40:24;100931.47;;;19.68;66.27
32735;BME280;19112;51.076;3.706;2023-09-19T07:42:52;100874.66;;;19.48;65.71
32735;BME280;19112;51.076;3.706;2023-09-19T07:45:18;100939.34;;;19.99;65.36
32735;BME280;19112;51.076;3.706;2023-09-19T07:47:50;100961.47;;;20.22;64.70
32735;BME280;19112;51.076;3.706;2023-09-19T07:50:19;100956.06;;;20.36;64.45
32735;BME280;19112;51.076;3.706;2023-09-19T07:52:49;100816.00;;;19.69;64.12
32735;BME280;19112;51.076;3.706;2023-09-19T07:55:20;100915.22;;;20.23;64.01
32735;BME280;19112;51.076;3.706;2023-09-19T07:57:49;100832.81;;;19.88;63.52
32735;BME280;19112;51.076;3.706;2023-09-19T08:00:15;100810.63;;;19.81;62.87
32735;BME280;19112;51.076;3.706;2023-09-19T08:02:42;100908.88;;;20.53;62.16
32735;BME280;19112;51.076;3.706;2023-09-19T08:05:10;100884.06;;;20.36;62.46
32735;BME280;19112;51.076;3.706;2023-09-19T08:07:41;100929.22;;;20.66;61.59
32735;BME280;19112;51.076;3.706;2023-09-19T08:10:09;100829.03;;;20.26;61.57
32735;BME280;19112;51.076;3.706;2023-09-19T08:12:39;100916.69;;;20.79;61.83
32735;BME280;19112;51.076;3.706;2023-09-19T08:15:17;100907.75;;;20.88;61.24
32735;BME280;19112;51.076;3.706;2023-09-19T08:17:43;100826.09;;;20.64;61.19
32735;BME280;19112;51.076;3.706;2023-09-19T08:20:10;100837.56;;;20.75;60.71
32735;BME280;19112;51.076;3.706;2023-09-19T08:22:53;100925.06;;;21.39;60.12
32735;BME280;19112;51.076;3.706;2023-09-19T08:25:23;100901.94;;;21.38;59.98
32735;BME280;19112;51.076;3.706;2023-09-19T08:27:51;100886.72;;;21.45;59.90
32735;BME280;19112;51.076;3.706;2023-09-19T08:30:19;100889.31;;;21.51;59.36
32735;BME280;19112;51.076;3.706;2023-09-19T08:33:01;100945.88;;;21.91;59.16
32735;BME280;19112;51.076;3.706;2023-09-19T08:35:30;100827.25;;;21.28;59.08
32735;BME280;19112;51.076;3.706;2023-09-19T08:37:56;100920.22;;;21.77;58.73
32735;BME280;19112;51.076;3.706;2023-09-19T08:40:23;100949.41;;;21.93;58.73
32735;BME280;19112;51.076;3.706;2023-09-19T08:42:55;100942.28;;;21.95;58.72
32735;BME280;19112;51.076;3.706;2023-09-19T08:45:25;100906.81;;;21.81;58.39
32735;BME280;19112;51.076;3.706;2023-09-19T08:50:47;100937.81;;;21.96;58.04
32735;BME280;19112;51.076;3.706;2023-09-19T08:53:26;100866.00;;;21.67;57.49
32735;BME280;19112;51.076;3.706;2023-09-19T08:55:53;100878.44;;;21.69;57.51
32735;BME280;19112;51.076;3.706;2023-09-19T08:58:22;100910.16;;;21.97;56.59
32735;BME280;19112;51.076;3.706;2023-09-19T09:00:53;100925.41;;;21.89;57.22
32735;BME280;19112;51.076;3.706;2023-09-19T09:03:21;100942.06;;;22.14;57.06
32735;BME280;19112;51.076;3.706;2023-09-19T09:05:50;100887.03;;;21.93;56.47
32735;BME280;19112;51.076;3.706;2023-09-19T09:08:18;100871.16;;;21.82;56.53
32735;BME280;19112;51.076;3.706;2023-09-19T09:10:45;100887.09;;;21.90;56.14
32735;BME280;19112;51.076;3.706;2023-09-19T09:13:12;100920.00;;;21.95;56.07
32735;BME280;19112;51.076;3.706;2023-09-19T09:15:41;100862.47;;;21.62;56.16
32735;BME280;19112;51.076;3.706;2023-09-19T09:18:07;100913.84;;;21.88;56.45
32735;BME280;19112;51.076;3.706;2023-09-19T09:20:33;100884.78;;;21.59;56.71
32735;BME280;19112;51.076;3.706;2023-09-19T09:23:00;100894.69;;;21.50;56.85
32735;BME280;19112;51.076;3.706;2023-09-19T09:28:26;100885.94;;;21.37;56.94
32735;BME280;19112;51.076;3.706;2023-09-19T09:30:54;100853.28;;;21.06;57.80
32735;BME280;19112;51.076;3.706;2023-09-19T09:33:20;100862.16;;;21.09;58.46
32735;BME280;19112;51.076;3.706;2023-09-19T09:35:58;100851.47;;;21.11;58.43
32735;BME280;19112;51.076;3.706;2023-09-19T09:38:42;100765.78;;;20.43;58.94
32735;BME280;19112;51.076;3.706;2023-09-19T09:41:09;100787.03;;;20.57;59.37
32735;BME280;19112;51.076;3.706;2023-09-19T09:43:41;100897.69;;;21.16;59.23
32735;BME280;19112;51.076;3.706;2023-09-19T09:46:19;100924.13;;;21.45;58.97
32735;BME280;19112;51.076;3.706;2023-09-19T09:49:03;100924.88;;;21.59;59.21
32735;BME280;19112;51.076;3.706;2023-09-19T09:51:38;100874.63;;;21.07;58.99
32735;BME280;19112;51.076;3.706;2023-09-19T09:54:18;100894.91;;;21.31;58.98
32735;BME280;19112;51.076;3.706;2023-09-19T09:56:58;100819.44;;;21.08;58.97
32735;BME280;19112;51.076;3.706;2023-09-19T09:59:54;100928.09;;;21.90;58.59
32735;BME280;19112;51.076;3.706;2023-09-19T10:02:28;100837.53;;;21.64;58.19
32735;BME280;19112;51.076;3.706;2023-09-19T10:04:56;100847.28;;;21.68;57.55
32735;BME280;19112;51.076;3.706;2023-09-19T10:07:31;100823.22;;;21.67;57.07
32735;BME280;19112;51.076;3.706;2023-09-19T10:10:00;100801.91;;;21.64;57.17
32735;BME280;19112;51.076;3.706;2023-09-19T10:12:41;100832.75;;;21.89;56.11
32735;BME280;19112;51.076;3.706;2023-09-19T10:15:09;100829.13;;;21.92;56.31
32735;BME280;19112;51.076;3.706;2023-09-19T10:17:37;100840.63;;;21.98;55.73
32735;BME280;19112;51.076;3.706;2023-09-19T10:20:06;100849.25;;;22.22;55.44
32735;BME280;19112;51.076;3.706;2023-09-19T10:22:46;100877.25;;;22.57;54.39
32735;BME280;19112;51.076;3.706;2023-09-19T10:25:29;100902.44;;;23.00;54.04
32735;BME280;19112;51.076;3.706;2023-09-19T10:27:58;100852.97;;;22.67;53.20
32735;BME280;19112;51.076;3.706;2023-09-19T10:30:29;100786.47;;;22.44;53.42
32735;BME280;19112;51.076;3.706;2023-09-19T10:33:04;100850.78;;;22.94;53.33
32735;BME280;19112;51.076;3.706;2023-09-19T10:35:32;100851.81;;;22.84;53.26
32735;BME280;19112;51.076;3.706;2023-09-19T10:38:03;100897.84;;;23.09;53.29
32735;BME280;19112;51.076;3.706;2023-09-19T10:40:30;100818.03;;;22.77;52.89
32735;BME280;19112;51.076;3.706;2023-09-19T10:43:05;100888.56;;;23.26;52.98
32735;BME280;19112;51.076;3.706;2023-09-19T10:45:33;100857.31;;;23.27;52.41
32735;BME280;19112;51.076;3.706;2023-09-19T10:48:03;100887.88;;;23.65;52.78
32735;BME280;19112;51.076;3.706;2023-09-19T10:50:35;100839.69;;;23.60;52.15
32735;BME280;19112;51.076;3.706;2023-09-19T10:53:05;100889.88;;;23.98;51.82
32735;BME280;19112;51.076;3.706;2023-09-19T10:55:33;100786.09;;;23.60;51.64
32735;BME280;19112;51.076;3.706;2023-09-19T10:58:01;100861.84;;;24.12;50.32
32735;BME280;19112;51.076;3.706;2023-09-19T11:00:52;100819.25;;;23.96;50.17
32735;BME280;19112;51.076;3.706;2023-09-19T11:03:20;100803.00;;;24.04;49.03
32735;BME280;19112;51.076;3.706;2023-09-19T11:06:16;100804.00;;;24.00;48.27
32735;BME280;19112;51.076;3.706;2023-09-19T11:11:43;100766.72;;;23.88;48.05
32735;BME280;19112;51.076;3.706;2023-09-19T11:30:50;100781.22;;;24.55;46.72
32735;BME280;19112;51.076;3.706;2023-09-19T11:33:29;100831.53;;;24.82;46.93
32735;BME280;19112;51.076;3.706;2023-09-19T11:36:14;100869.44;;;25.06;46.97
32735;BME280;19112;51.076;3.706;2023-09-19T11:46:21;100755.28;;;24.18;47.02
32735;BME280;19112;51.076;3.706;2023-09-19T11:48:51;100814.34;;;24.55;47.95
32735;BME280;19112;51.076;3.706;2023-09-19T11:53:59;100819.03;;;24.46;47.54
32735;BME280;19112;51.076;3.706;2023-09-19T11:56:26;100830.72;;;24.43;47.58
32735;BME280;19112;51.076;3.706;2023-09-19T11:58:56;100878.38;;;24.71;47.95
32735;BME280;19112;51.076;3.706;2023-09-19T12:01:32;100871.22;;;24.70;48.42
32735;BME280;19112;51.076;3.706;2023-09-19T12:04:02;100757.81;;;24.23;48.42
32735;BME280;19112;51.076;3.706;2023-09-19T12:06:30;100784.97;;;24.48;48.22
32735;BME280;19112;51.076;3.706;2023-09-19T12:08:58;100787.88;;;24.40;47.93
32735;BME280;19112;51.076;3.706;2023-09-19T12:11:31;100801.25;;;24.76;48.21
32735;BME280;19112;51.076;3.706;2023-09-19T12:13:59;100856.25;;;25.29;47.58
32735;BME280;19112;51.076;3.706;2023-09-19T12:16:27;100841.94;;;25.29;47.01
32735;BME280;19112;51.076;3.706;2023-09-19T12:18:56;100869.34;;;25.43;47.17
32735;BME280;19112;51.076;3.706;2023-09-19T12:21:31;100827.81;;;25.22;47.13
32735;BME280;19112;51.076;3.706;2023-09-19T12:24:13;100765.97;;;24.90;47.44
32735;BME280;19112;51.076;3.706;2023-09-19T12:26:44;100845.50;;;25.29;46.94
32735;BME280;19112;51.076;3.706;2023-09-19T12:29:20;100815.13;;;25.27;46.57
32735;BME280;19112;51.076;3.706;2023-09-19T12:31:54;100755.75;;;25.02;46.15
32735;BME280;19112;51.076;3.706;2023-09-19T12:34:25;100818.13;;;25.48;46.07
32735;BME280;19112;51.076;3.706;2023-09-19T12:37:16;100885.84;;;25.93;46.19
32735;BME280;19112;51.076;3.706;2023-09-19T12:39:52;100758.72;;;25.26;45.95
32735;BME280;19112;51.076;3.706;2023-09-19T12:42:23;100875.63;;;26.04;45.57
32735;BME280;19112;51.076;3.706;2023-09-19T12:44:51;100821.31;;;25.62;45.30
32735;BME280;19112;51.076;3.706;2023-09-19T12:47:28;100808.94;;;25.86;44.90
32735;BME280;19112;51.076;3.706;2023-09-19T12:50:16;100829.81;;;25.78;44.70
32735;BME280;19112;51.076;3.706;2023-09-19T12:52:52;100854.34;;;25.66;45.17
32735;BME280;19112;51.076;3.706;2023-09-19T12:55:30;100811.91;;;25.46;45.35
32735;BME280;19112;51.076;3.706;2023-09-19T12:58:14;100772.22;;;24.90;45.47
32735;BME280;19112;51.076;3.706;2023-09-19T13:00:45;100752.03;;;24.75;45.75
32735;BME280;19112;51.076;3.706;2023-09-19T13:03:16;100871.03;;;25.47;45.62
32735;BME280;19112;51.076;3.706;2023-09-19T13:06:10;100814.94;;;25.33;46.01
32735;BME280;19112;51.076;3.706;2023-09-19T13:08:40;100821.56;;;25.53;45.20
32735;BME280;19112;51.076;3.706;2023-09-19T13:11:17;100863.75;;;25.82;45.29
32735;BME280;19112;51.076;3.706;2023-09-19T13:14:12;100840.66;;;25.75;44.94
32735;BME280;19112;51.076;3.706;2023-09-19T13:19:45;100855.50;;;25.88;45.33
32735;BME280;19112;51.076;3.706;2023-09-19T13:22:40;100855.16;;;26.00;44.63
32735;BME280;19112;51.076;3.706;2023-09-19T13:25:21;100815.00;;;25.61;44.94
32735;BME280;19112;51.076;3.706;2023-09-19T13:27:49;100782.75;;;25.61;44.64
32735;BME280;19112;51.076;3.706;2023-09-19T13:30:18;100764.63;;;25.39;44.59
32735;BME280;19112;51.076;3.706;2023-09-19T13:32:44;100836.91;;;25.80;44.68
32735;BME280;19112;51.076;3.706;2023-09-19T13:35:13;100812.91;;;25.73;44.39
32735;BME280;19112;51.076;3.706;2023-09-19T13:37:40;100791.31;;;25.45;44.71
32735;BME280;19112;51.076;3.706;2023-09-19T13:40:15;100783.00;;;25.23;45.08
32735;BME280;19112;51.076;3.706;2023-09-19T13:42:42;100821.38;;;25.28;45.74
32735;BME280;19112;51.076;3.706;2023-09-19T13:45:08;100799.78;;;24.98;45.96
32735;BME280;19112;51.076;3.706;2023-09-19T13:47:40;100799.50;;;24.75;46.59
32735;BME280;19112;51.076;3.706;2023-09-19T13:50:07;100799.38;;;24.45;46.86
32735;BME280;19112;51.076;3.706;2023-09-19T13:52:33;100768.97;;;24.06;47.18
32735;BME280;19112;51.076;3.706;2023-09-19T13:54:59;100855.81;;;24.42;47.54
32735;BME280;19112;51.076;3.706;2023-09-19T13:57:26;100712.63;;;23.69;47.85
32735;BME280;19112;51.076;3.706;2023-09-19T13:59:53;100813.41;;;24.18;47.85
32735;BME280;19112;51.076;3.706;2023-09-19T14:02:23;100818.06;;;24.48;47.77
32735;BME280;19112;51.076;3.706;2023-09-19T14:04:50;100810.03;;;24.48;47.51